createdAt,value
2018-12-29T00:01:51.718Z,42.17
2018-12-29T00:04:20.220Z,45.77
2018-12-29T00:06:48.705Z,40.87
2018-12-29T00:09:17.179Z,46.03
2018-12-29T00:11:45.652Z,42.70
2018-12-29T00:14:14.152Z,40.90
2018-12-29T00:16:42.643Z,45.00
2018-12-29T00:19:11.117Z,41.10
2018-12-29T00:21:39.601Z,41.63
2018-12-29T00:24:08.089Z,41.80
2018-12-29T00:26:36.561Z,41.03
2018-12-29T00:29:05.043Z,43.83
2018-12-29T00:31:33.495Z,43.47
2018-12-29T00:34:02.011Z,41.00
2018-12-29T00:36:31.064Z,43.25
2018-12-29T00:38:59.555Z,41.33
2018-12-29T00:41:28.033Z,42.43
2018-12-29T00:43:56.505Z,44.47
2018-12-29T00:46:25.052Z,40.60
2018-12-29T00:48:53.511Z,41.17
2018-12-29T00:51:22.004Z,39.20
2018-12-29T00:53:50.466Z,43.10
2018-12-29T00:56:18.947Z,41.60
2018-12-29T00:58:47.439Z,39.37
2018-12-29T01:01:15.982Z,38.27
2018-12-29T01:03:44.463Z,41.80
2018-12-29T01:06:12.944Z,39.30
2018-12-29T01:08:41.430Z,40.40
2018-12-29T01:11:09.908Z,39.60
2018-12-29T01:13:38.414Z,37.57
2018-12-29T01:16:06.944Z,40.60
2018-12-29T01:18:35.419Z,39.47
2018-12-29T01:21:03.906Z,38.47
2018-12-29T01:23:32.380Z,37.50
2018-12-29T01:26:00.862Z,37.47
2018-12-29T01:28:29.329Z,38.83
2018-12-29T01:30:57.814Z,37.37
2018-12-29T01:33:26.305Z,40.17
2018-12-29T01:35:54.778Z,40.27
2018-12-29T01:38:23.248Z,39.63
2018-12-29T01:40:51.733Z,39.37
2018-12-29T01:43:20.201Z,39.50
2018-12-29T01:45:48.671Z,42.23
2018-12-29T01:48:17.139Z,38.60
2018-12-29T01:50:45.652Z,42.47
2018-12-29T01:53:14.165Z,38.10
2018-12-29T01:55:42.651Z,39.87
2018-12-29T01:58:11.134Z,40.60
2018-12-29T02:00:39.587Z,39.10
2018-12-29T02:03:08.062Z,38.70
2018-12-29T02:05:36.514Z,42.23
2018-12-29T02:08:04.980Z,37.90
2018-12-29T02:10:33.455Z,41.93
2018-12-29T02:13:01.946Z,41.20
2018-12-29T02:15:30.398Z,41.97
2018-12-29T02:17:58.884Z,40.47
2018-12-29T02:20:27.755Z,39.83
2018-12-29T02:22:56.252Z,43.30
2018-12-29T02:25:24.723Z,41.13
2018-12-29T02:27:53.208Z,41.13
2018-12-29T02:30:21.728Z,40.50
2018-12-29T02:32:50.203Z,39.57
2018-12-29T02:35:18.679Z,42.37
2018-12-29T02:37:47.240Z,41.60
2018-12-29T02:40:15.695Z,41.43
2018-12-29T02:42:44.172Z,39.50
2018-12-29T02:45:12.711Z,38.83
2018-12-29T02:47:41.210Z,38.37
2018-12-29T02:50:09.681Z,37.23
2018-12-29T02:52:38.168Z,38.53
2018-12-29T02:55:06.632Z,45.13
2018-12-29T02:57:35.127Z,37.53
2018-12-29T03:00:03.671Z,37.33
2018-12-29T03:02:32.151Z,38.47
2018-12-29T03:05:00.618Z,36.83
2018-12-29T03:07:29.089Z,35.57
2018-12-29T03:09:57.552Z,36.63
2018-12-29T03:12:26.016Z,33.67
2018-12-29T03:14:54.501Z,36.93
2018-12-29T03:17:22.956Z,34.07
2018-12-29T03:19:51.435Z,32.23
2018-12-29T03:22:21.274Z,35.83
2018-12-29T03:24:49.765Z,33.20
2018-12-29T03:27:18.236Z,35.00
2018-12-29T03:29:46.731Z,37.07
2018-12-29T03:32:15.199Z,41.80
2018-12-29T03:34:43.684Z,33.57
2018-12-29T03:37:12.149Z,36.83
2018-12-29T03:39:40.629Z,35.00
2018-12-29T03:42:09.112Z,34.13
2018-12-29T03:44:37.587Z,34.50
2018-12-29T03:47:06.045Z,35.17
2018-12-29T03:49:34.523Z,36.63
2018-12-29T03:52:02.998Z,36.00
2018-12-29T03:54:31.486Z,34.40
2018-12-29T03:56:59.960Z,35.93
2018-12-29T03:59:28.447Z,34.27
2018-12-29T04:01:56.904Z,36.10
2018-12-29T04:04:25.400Z,36.67
2018-12-29T04:06:53.928Z,35.77
2018-12-29T04:09:33.455Z,38.00
2018-12-29T04:12:04.828Z,33.37
2018-12-29T04:14:34.858Z,38.53
2018-12-29T04:17:03.489Z,34.37
2018-12-29T04:19:31.970Z,37.37
2018-12-29T04:22:00.444Z,34.90
2018-12-29T04:24:28.925Z,38.37
2018-12-29T04:26:57.388Z,35.27
2018-12-29T04:29:25.863Z,36.53
2018-12-29T04:31:54.318Z,34.47
2018-12-29T04:34:22.794Z,36.30
2018-12-29T04:36:51.266Z,35.87
2018-12-29T04:39:19.744Z,34.20
2018-12-29T04:41:48.199Z,34.50
2018-12-29T04:44:16.682Z,34.40
2018-12-29T04:46:45.137Z,34.90
2018-12-29T04:49:13.607Z,31.57
2018-12-29T04:51:42.091Z,34.83
2018-12-29T04:54:10.552Z,36.87
2018-12-29T04:56:39.037Z,36.40
2018-12-29T04:59:07.507Z,34.47
2018-12-29T05:01:35.982Z,35.43
2018-12-29T05:04:04.446Z,31.93
2018-12-29T05:06:32.939Z,34.67
2018-12-29T05:09:01.418Z,33.13
2018-12-29T05:11:29.911Z,35.97
2018-12-29T05:13:58.429Z,35.67
2018-12-29T05:16:26.959Z,33.93
2018-12-29T05:18:55.427Z,34.57
2018-12-29T05:21:23.913Z,34.97
2018-12-29T05:23:52.381Z,36.33
2018-12-29T05:26:20.867Z,32.50
2018-12-29T05:28:49.345Z,33.13
2018-12-29T05:31:17.826Z,33.90
2018-12-29T05:33:46.291Z,33.40
2018-12-29T05:36:14.790Z,34.57
2018-12-29T05:38:43.249Z,36.17
2018-12-29T05:41:11.737Z,33.80
2018-12-29T05:43:40.214Z,32.47
2018-12-29T05:46:08.683Z,31.73
2018-12-29T05:48:37.150Z,29.50
2018-12-29T05:51:05.646Z,33.10
2018-12-29T05:53:34.096Z,36.00
2018-12-29T05:56:02.594Z,36.00
2018-12-29T05:58:31.124Z,32.77
2018-12-29T06:00:59.600Z,30.57
2018-12-29T06:03:28.076Z,32.50
2018-12-29T06:05:56.560Z,32.07
2018-12-29T06:08:25.042Z,33.77
2018-12-29T06:10:53.538Z,31.43
2018-12-29T06:13:22.008Z,34.03
2018-12-29T06:15:52.045Z,38.70
2018-12-29T06:18:20.514Z,31.93
2018-12-29T06:20:48.980Z,31.50
2018-12-29T06:23:17.468Z,31.07
2018-12-29T06:25:45.931Z,32.13
2018-12-29T06:28:14.461Z,31.80
2018-12-29T06:30:42.922Z,30.77
2018-12-29T06:33:11.421Z,30.40
2018-12-29T06:35:39.896Z,38.27
2018-12-29T06:38:08.372Z,32.50
2018-12-29T06:40:36.843Z,33.97
2018-12-29T06:43:05.331Z,30.03
2018-12-29T06:45:33.792Z,30.90
2018-12-29T06:48:02.287Z,30.97
2018-12-29T06:50:30.757Z,33.07
2018-12-29T06:52:59.236Z,31.80
2018-12-29T06:55:27.692Z,29.37
2018-12-29T06:57:56.181Z,30.03
2018-12-29T07:00:24.650Z,30.77
2018-12-29T07:02:53.127Z,34.07
2018-12-29T07:05:21.595Z,30.47
2018-12-29T07:07:50.141Z,32.13
2018-12-29T07:10:18.647Z,31.93
2018-12-29T07:12:47.123Z,32.60
2018-12-29T07:15:15.599Z,30.60
2018-12-29T07:17:44.079Z,31.37
2018-12-29T07:20:12.544Z,29.97
2018-12-29T07:22:41.025Z,31.27
2018-12-29T07:25:09.513Z,30.20
2018-12-29T07:27:37.993Z,33.07
2018-12-29T07:30:07.700Z,33.90
2018-12-29T07:32:36.195Z,33.27
2018-12-29T07:35:05.112Z,32.60
2018-12-29T07:37:33.605Z,37.10
2018-12-29T07:40:02.069Z,36.33
2018-12-29T07:42:30.601Z,36.70
2018-12-29T07:44:59.101Z,33.50
2018-12-29T07:47:27.577Z,33.13
2018-12-29T07:49:56.070Z,34.60
2018-12-29T07:52:24.527Z,34.23
2018-12-29T07:54:53.015Z,33.70
2018-12-29T07:57:21.480Z,34.03
2018-12-29T07:59:49.982Z,29.77
2018-12-29T08:02:18.447Z,31.30
2018-12-29T08:04:46.937Z,27.67
2018-12-29T08:07:15.391Z,30.00
2018-12-29T08:09:43.879Z,27.60
2018-12-29T08:12:12.343Z,31.07
2018-12-29T08:14:40.823Z,29.07
2018-12-29T08:17:09.295Z,32.20
2018-12-29T08:19:37.781Z,26.73
2018-12-29T08:22:06.259Z,27.77
2018-12-29T08:24:34.740Z,27.40
2018-12-29T08:27:03.201Z,25.00
2018-12-29T08:29:31.733Z,26.20
2018-12-29T08:32:00.208Z,26.07
2018-12-29T08:34:28.679Z,26.70
2018-12-29T08:36:57.149Z,26.60
2018-12-29T08:39:25.634Z,25.77
2018-12-29T08:41:54.106Z,21.63
2018-12-29T08:44:23.593Z,27.30
2018-12-29T08:46:52.062Z,25.27
2018-12-29T08:49:20.552Z,24.50
2018-12-29T08:51:49.024Z,22.77
2018-12-29T08:54:17.611Z,20.47
2018-12-29T08:56:46.098Z,22.43
2018-12-29T08:59:14.550Z,24.90
2018-12-29T09:01:43.040Z,22.67
2018-12-29T09:04:11.522Z,22.97
2018-12-29T09:06:40.036Z,21.77
2018-12-29T09:09:08.509Z,25.37
2018-12-29T09:11:36.999Z,21.50
2018-12-29T09:14:05.470Z,22.33
2018-12-29T09:16:33.953Z,22.20
2018-12-29T09:19:02.439Z,21.07
2018-12-29T09:21:30.925Z,21.83
2018-12-29T09:23:59.391Z,22.23
2018-12-29T09:26:27.901Z,23.77
2018-12-29T09:28:56.392Z,22.93
2018-12-29T09:31:25.494Z,21.33
2018-12-29T09:33:54.529Z,21.70
2018-12-29T09:36:23.607Z,20.85
2018-12-29T09:38:52.666Z,19.40
2018-12-29T09:41:21.143Z,20.30
2018-12-29T09:43:50.272Z,21.93
2018-12-29T09:46:18.775Z,17.85
2018-12-29T09:48:47.235Z,19.45
2018-12-29T09:51:16.297Z,19.27
2018-12-29T09:53:45.357Z,20.08
2018-12-29T09:56:13.829Z,19.12
2018-12-29T09:58:42.885Z,20.15
2018-12-29T10:01:11.966Z,20.43
2018-12-29T10:03:40.457Z,19.62
2018-12-29T10:06:08.925Z,18.87
2018-12-29T10:08:37.401Z,19.33
2018-12-29T10:11:06.470Z,19.62
2018-12-29T10:13:35.517Z,19.32
2018-12-29T10:16:04.035Z,18.73
2018-12-29T10:18:32.571Z,17.52
2018-12-29T10:21:01.049Z,18.33
2018-12-29T10:23:30.075Z,19.27
2018-12-29T10:25:58.583Z,18.23
2018-12-29T10:28:27.638Z,20.80
2018-12-29T10:30:56.110Z,16.90
2018-12-29T10:33:24.590Z,19.10
2018-12-29T10:35:53.622Z,20.15
2018-12-29T10:38:22.205Z,17.83
2018-12-29T10:40:50.667Z,17.93
2018-12-29T10:43:19.175Z,18.90
2018-12-29T10:45:48.219Z,18.60
2018-12-29T10:48:17.292Z,18.05
2018-12-29T10:50:46.343Z,15.40
2018-12-29T10:53:15.438Z,13.53
2018-12-29T10:55:44.492Z,16.70
2018-12-29T10:58:12.984Z,17.35
2018-12-29T11:00:42.046Z,17.10
2018-12-29T11:03:11.117Z,16.80
2018-12-29T11:05:40.175Z,14.38
2018-12-29T11:08:09.256Z,16.30
2018-12-29T11:10:38.315Z,15.50
2018-12-29T11:13:07.412Z,14.33
2018-12-29T11:15:36.459Z,14.75
2018-12-29T11:18:05.527Z,16.23
2018-12-29T11:20:34.704Z,15.53
2018-12-29T11:23:03.192Z,16.32
2018-12-29T11:25:32.331Z,16.80
2018-12-29T11:28:01.456Z,15.78
2018-12-29T11:30:30.537Z,17.92
2018-12-29T11:32:59.622Z,18.15
2018-12-29T11:35:29.102Z,17.75
2018-12-29T11:37:58.312Z,16.52
2018-12-29T11:40:27.371Z,17.85
2018-12-29T11:42:56.807Z,16.65
2018-12-29T11:45:25.869Z,19.57
2018-12-29T11:47:54.980Z,23.73
2018-12-29T11:50:24.048Z,20.17
2018-12-29T11:52:53.097Z,20.25
2018-12-29T11:55:22.155Z,19.67
2018-12-29T11:57:51.217Z,16.93
2018-12-29T12:00:20.302Z,15.93
2018-12-29T12:02:49.436Z,16.52
2018-12-29T12:05:18.509Z,16.93
2018-12-29T12:07:47.588Z,15.58
2018-12-29T12:10:16.704Z,14.80
2018-12-29T12:12:45.175Z,14.90
2018-12-29T12:15:14.327Z,14.73
2018-12-29T12:17:43.459Z,14.65
2018-12-29T12:20:12.037Z,14.47
2018-12-29T12:22:41.173Z,15.30
2018-12-29T12:25:10.322Z,17.02
2018-12-29T12:27:38.858Z,15.67
2018-12-29T12:30:08.258Z,17.03
2018-12-29T12:32:36.813Z,15.40
2018-12-29T12:35:05.770Z,16.17
2018-12-29T12:37:34.329Z,18.10
2018-12-29T12:40:03.051Z,17.93
2018-12-29T12:42:32.239Z,16.07
2018-12-29T12:45:00.786Z,18.27
2018-12-29T12:47:29.351Z,16.00
2018-12-29T12:49:57.893Z,16.40
2018-12-29T12:52:26.870Z,16.80
2018-12-29T12:54:55.350Z,16.25
2018-12-29T12:57:24.464Z,15.25
2018-12-29T12:59:53.913Z,15.35
2018-12-29T13:02:22.660Z,16.40
2018-12-29T13:04:51.120Z,16.25
2018-12-29T13:07:20.366Z,14.98
2018-12-29T13:09:49.424Z,14.03
2018-12-29T13:12:18.586Z,13.80
2018-12-29T13:14:48.126Z,13.95
2018-12-29T13:17:17.370Z,14.60
2018-12-29T13:19:45.889Z,14.07
2018-12-29T13:22:14.956Z,14.10
2018-12-29T13:24:44.043Z,13.35
2018-12-29T13:27:13.382Z,13.50
2018-12-29T13:29:42.430Z,14.95
2018-12-29T13:32:11.581Z,12.43
2018-12-29T13:34:40.637Z,12.37
2018-12-29T13:37:09.786Z,12.05
2018-12-29T13:39:39.137Z,11.00
2018-12-29T13:42:08.407Z,14.15
2018-12-29T13:44:37.496Z,13.85
2018-12-29T13:47:06.649Z,11.78
2018-12-29T13:49:35.775Z,12.50
2018-12-29T13:52:04.976Z,13.10
2018-12-29T13:54:33.460Z,10.20
2018-12-29T13:57:02.600Z,11.73
2018-12-29T13:59:31.749Z,12.15
2018-12-29T14:02:00.903Z,12.35
2018-12-29T14:04:29.952Z,11.80
2018-12-29T14:07:00.848Z,11.60
2018-12-29T14:09:30.020Z,13.48
2018-12-29T14:11:59.138Z,12.82
2018-12-29T14:14:27.888Z,12.63
2018-12-29T14:16:57.022Z,11.88
2018-12-29T14:19:25.498Z,13.87
2018-12-29T14:21:54.638Z,14.10
2018-12-29T14:24:23.694Z,15.13
2018-12-29T14:26:52.166Z,14.67
2018-12-29T14:29:20.722Z,14.87
2018-12-29T14:31:49.791Z,15.08
2018-12-29T14:34:18.943Z,14.60
2018-12-29T14:36:47.471Z,15.00
2018-12-29T14:39:16.618Z,17.20
2018-12-29T14:41:45.103Z,16.73
2018-12-29T14:44:13.611Z,15.50
2018-12-29T14:46:42.147Z,16.63
2018-12-29T14:49:10.617Z,16.13
2018-12-29T14:51:39.448Z,14.87
2018-12-29T14:54:08.528Z,16.30
2018-12-29T14:56:37.662Z,16.17
2018-12-29T14:59:06.272Z,14.80
2018-12-29T15:01:35.757Z,12.70
2018-12-29T15:04:04.260Z,15.33
2018-12-29T15:06:32.795Z,14.53
2018-12-29T15:09:01.339Z,12.77
2018-12-29T15:11:29.902Z,15.30
2018-12-29T15:13:58.427Z,12.93
2018-12-29T15:16:26.913Z,12.93
2018-12-29T15:18:56.766Z,13.57
2018-12-29T15:21:25.702Z,12.43
2018-12-29T15:23:54.239Z,14.57
2018-12-29T15:26:22.717Z,13.37
2018-12-29T15:28:51.271Z,15.37
2018-12-29T15:31:19.805Z,14.67
2018-12-29T15:33:48.363Z,16.97
2018-12-29T15:36:16.841Z,14.63
2018-12-29T15:38:45.397Z,14.83
2018-12-29T15:41:13.926Z,14.30
2018-12-29T15:43:42.440Z,14.80
2018-12-29T15:46:10.972Z,13.67
2018-12-29T15:48:39.514Z,15.53
2018-12-29T15:51:07.981Z,14.00
2018-12-29T15:53:36.536Z,15.63
2018-12-29T15:56:04.991Z,14.43
2018-12-29T15:58:33.537Z,15.07
2018-12-29T16:01:02.104Z,14.97
2018-12-29T16:03:30.638Z,15.13
2018-12-29T16:05:59.202Z,15.03
2018-12-29T16:08:28.054Z,16.27
2018-12-29T16:10:56.605Z,16.07
2018-12-29T16:13:25.075Z,16.50
2018-12-29T16:15:53.619Z,15.27
2018-12-29T16:18:22.574Z,15.03
2018-12-29T16:20:54.236Z,14.73
2018-12-29T16:23:21.314Z,14.37
2018-12-29T16:25:50.287Z,14.83
2018-12-29T16:28:18.823Z,14.00
2018-12-29T16:30:47.360Z,13.47
2018-12-29T16:33:15.874Z,13.60
2018-12-29T16:35:44.497Z,13.87
2018-12-29T16:38:13.143Z,14.90
2018-12-29T16:40:41.702Z,12.23
2018-12-29T16:43:10.255Z,12.10
2018-12-29T16:45:38.823Z,12.80
2018-12-29T16:48:07.754Z,13.23
2018-12-29T16:50:36.342Z,12.97
2018-12-29T16:53:04.881Z,12.77
2018-12-29T16:55:33.425Z,13.03
2018-12-29T16:58:02.262Z,9.87
2018-12-29T17:00:30.731Z,10.40
2018-12-29T17:02:59.211Z,11.47
2018-12-29T17:05:27.817Z,11.47
2018-12-29T17:07:56.559Z,12.40
2018-12-29T17:10:25.115Z,11.70
2018-12-29T17:12:53.675Z,13.23
2018-12-29T17:15:22.219Z,12.23
2018-12-29T17:17:50.682Z,10.53
2018-12-29T17:20:19.176Z,10.57
2018-12-29T17:22:48.316Z,9.48
2018-12-29T17:25:16.845Z,9.33
2018-12-29T17:27:45.396Z,9.87
2018-12-29T17:30:13.946Z,11.47
2018-12-29T17:32:42.986Z,9.80
2018-12-29T17:35:11.529Z,10.20
2018-12-29T17:37:40.069Z,9.37
2018-12-29T17:40:08.614Z,8.37
2018-12-29T17:42:37.165Z,10.60
2018-12-29T17:45:06.168Z,9.13
2018-12-29T17:47:34.646Z,8.60
2018-12-29T17:50:03.306Z,10.57
2018-12-29T17:52:31.859Z,8.40
2018-12-29T17:55:00.592Z,9.17
2018-12-29T17:57:29.148Z,10.10
2018-12-29T17:59:57.693Z,9.37
2018-12-29T18:02:26.233Z,9.30
2018-12-29T18:04:55.326Z,8.35
2018-12-29T18:07:24.194Z,8.87
2018-12-29T18:09:57.181Z,9.07
2018-12-29T18:12:23.501Z,9.63
2018-12-29T18:14:52.375Z,8.20
2018-12-29T18:17:21.494Z,9.18
2018-12-29T18:19:50.035Z,9.80
2018-12-29T18:22:19.162Z,8.43
2018-12-29T18:24:48.005Z,8.90
2018-12-29T18:27:18.157Z,7.77
2018-12-29T18:29:46.830Z,8.88
2018-12-29T18:32:15.390Z,9.07
2018-12-29T18:34:43.920Z,8.20
2018-12-29T18:37:12.774Z,8.60
2018-12-29T18:39:41.339Z,10.13
2018-12-29T18:42:09.887Z,8.47
2018-12-29T18:44:38.452Z,10.07
2018-12-29T18:47:07.001Z,10.37
2018-12-29T18:49:38.695Z,8.93
2018-12-29T18:52:05.769Z,8.83
2018-12-29T18:54:34.239Z,8.83
2018-12-29T18:57:02.786Z,10.53
2018-12-29T18:59:31.329Z,8.83
2018-12-29T19:01:59.819Z,13.33
2018-12-29T19:04:28.348Z,11.97
2018-12-29T19:06:56.813Z,11.40
2018-12-29T19:09:25.288Z,10.83
2018-12-29T19:11:53.750Z,11.50
2018-12-29T19:14:22.631Z,14.93
2018-12-29T19:16:51.570Z,12.10
2018-12-29T19:19:20.400Z,15.53
2018-12-29T19:21:48.880Z,13.07
2018-12-29T19:24:17.417Z,13.77
2018-12-29T19:26:45.895Z,14.43
2018-12-29T19:29:14.443Z,14.13
2018-12-29T19:31:44.675Z,13.30
2018-12-29T19:34:13.199Z,13.43
2018-12-29T19:36:41.674Z,18.33
2018-12-29T19:39:10.517Z,14.20
2018-12-29T19:41:46.325Z,14.30
2018-12-29T19:44:09.214Z,14.50
2018-12-29T19:46:38.051Z,15.73
2018-12-29T19:49:06.639Z,15.63
2018-12-29T19:51:35.184Z,13.27
2018-12-29T19:54:03.729Z,15.10
2018-12-29T19:56:32.299Z,14.77
2018-12-29T19:59:01.142Z,14.23
2018-12-29T20:01:29.703Z,12.93
2018-12-29T20:03:58.637Z,15.53
2018-12-29T20:06:27.143Z,12.63
2018-12-29T20:08:55.672Z,14.37
2018-12-29T20:11:24.154Z,12.17
2018-12-29T20:13:52.609Z,14.17
2018-12-29T20:16:21.102Z,11.60
2018-12-29T20:18:49.635Z,12.90
2018-12-29T20:21:18.115Z,11.67
2018-12-29T20:23:46.612Z,12.17
2018-12-29T20:26:15.145Z,12.60
2018-12-29T20:28:43.609Z,11.43
2018-12-29T20:31:12.130Z,11.50
2018-12-29T20:33:40.594Z,11.90
2018-12-29T20:36:09.061Z,10.77
2018-12-29T20:38:37.626Z,13.47
2018-12-29T20:41:06.165Z,10.90
2018-12-29T20:43:35.028Z,11.73
2018-12-29T20:46:03.568Z,9.47
2018-12-29T20:48:32.124Z,10.77
2018-12-29T20:51:00.715Z,10.23
2018-12-29T20:53:29.242Z,10.57
2018-12-29T20:55:57.704Z,10.63
2018-12-29T20:58:26.266Z,9.63
2018-12-29T21:00:54.810Z,9.03
2018-12-29T21:03:23.369Z,10.03
2018-12-29T21:05:51.846Z,10.53
2018-12-29T21:08:20.420Z,9.20
2018-12-29T21:10:49.273Z,8.47
2018-12-29T21:13:17.838Z,8.43
2018-12-29T21:15:46.382Z,7.57
2018-12-29T21:18:14.873Z,7.40
2018-12-29T21:20:43.404Z,8.17
2018-12-29T21:23:11.956Z,7.33
2018-12-29T21:25:40.702Z,7.77
2018-12-29T21:28:09.244Z,7.07
2018-12-29T21:30:37.714Z,6.87
2018-12-29T21:33:06.201Z,6.93
2018-12-29T21:35:34.753Z,6.20
2018-12-29T21:38:03.781Z,4.78
2018-12-29T21:40:32.331Z,5.27
2018-12-29T21:43:00.889Z,4.27
2018-12-29T21:45:29.440Z,4.80
2018-12-29T21:47:57.912Z,3.80
2018-12-29T21:50:26.811Z,4.87
2018-12-29T21:52:56.331Z,4.60
2018-12-29T21:55:24.860Z,5.10
2018-12-29T21:57:53.355Z,4.90
2018-12-29T22:00:21.879Z,4.53
2018-12-29T22:02:50.365Z,4.80
2018-12-29T22:05:18.931Z,4.47
2018-12-29T22:07:47.475Z,5.80
2018-12-29T22:10:16.025Z,4.70
2018-12-29T22:12:44.567Z,7.43
2018-12-29T22:15:13.123Z,4.20
2018-12-29T22:17:41.659Z,3.80
2018-12-29T22:20:10.614Z,5.20
2018-12-29T22:22:39.072Z,4.57
2018-12-29T22:25:07.716Z,4.13
2018-12-29T22:27:36.241Z,5.50
2018-12-29T22:30:06.240Z,4.17
2018-12-29T22:32:34.728Z,5.03
2018-12-29T22:35:03.376Z,4.43
2018-12-29T22:37:31.918Z,3.97
2018-12-29T22:40:00.503Z,3.57
2018-12-29T22:42:29.050Z,4.40
2018-12-29T22:44:57.514Z,5.07
2018-12-29T22:47:26.484Z,4.63
2018-12-29T22:49:54.948Z,4.13
2018-12-29T22:52:23.426Z,5.27
2018-12-29T22:54:51.901Z,5.33
2018-12-29T22:57:20.452Z,4.17
2018-12-29T22:59:49.001Z,4.80
2018-12-29T23:02:17.526Z,5.33
2018-12-29T23:04:46.632Z,4.40
2018-12-29T23:07:15.962Z,4.50
2018-12-29T23:09:44.501Z,4.37
2018-12-29T23:12:13.065Z,4.93
2018-12-29T23:14:41.594Z,6.17
2018-12-29T23:17:10.162Z,7.67
2018-12-29T23:19:38.725Z,5.37
2018-12-29T23:22:07.257Z,6.30
2018-12-29T23:24:36.425Z,5.58
2018-12-29T23:27:05.507Z,5.87
2018-12-29T23:29:34.057Z,4.97
2018-12-29T23:32:03.171Z,6.60
2018-12-29T23:34:32.018Z,5.93
2018-12-29T23:37:00.475Z,7.00
2018-12-29T23:39:29.529Z,6.55
2018-12-29T23:41:58.433Z,6.40
2018-12-29T23:44:26.991Z,6.07
2018-12-29T23:46:55.455Z,5.35
2018-12-29T23:49:24.309Z,5.80
2018-12-29T23:51:53.717Z,6.83
2018-12-29T23:54:22.195Z,6.27
2018-12-29T23:56:51.142Z,6.92
2018-12-29T23:59:20.555Z,6.22
